sensor_id;sensor_type;location;lat;lon;timestamp;P1;durP1;ratioP1;P2;durP2;ratioP2
51248;SDS011;39642;47.556;18.728;2023-12-20T00:01:08;18.40;;;10.20;;
51248;SDS011;39642;47.556;18.728;2023-12-20T00:03:34;17.27;;;10.23;;
51248;SDS011;39642;47.556;18.728;2023-12-20T00:06:00;16.42;;;10.57;;
51248;SDS011;39642;47.556;18.728;2023-12-20T00:08:26;16.10;;;9.85;;
51248;SDS011;39642;47.556;18.728;2023-12-20T00:10:51;17.02;;;10.63;;
51248;SDS011;39642;47.556;18.728;2023-12-20T00:13:17;18.35;;;10.48;;
51248;SDS011;39642;47.556;18.728;2023-12-20T00:15:43;17.12;;;10.95;;
51248;SDS011;39642;47.556;18.728;2023-12-20T00:18:09;16.50;;;10.27;;
51248;SDS011;39642;47.556;18.728;2023-12-20T00:20:35;16.67;;;9.93;;
51248;SDS011;39642;47.556;18.728;2023-12-20T00:23:01;17.00;;;10.20;;
51248;SDS011;39642;47.556;18.728;2023-12-20T00:25:27;16.98;;;9.93;;
51248;SDS011;39642;47.556;18.728;2023-12-20T00:27:53;17.80;;;10.57;;
51248;SDS011;39642;47.556;18.728;2023-12-20T00:30:19;16.05;;;9.75;;
51248;SDS011;39642;47.556;18.728;2023-12-20T00:32:45;16.23;;;10.27;;
51248;SDS011;39642;47.556;18.728;2023-12-20T00:35:14;17.70;;;10.50;;
51248;SDS011;39642;47.556;18.728;2023-12-20T00:37:41;17.17;;;10.45;;
51248;SDS011;39642;47.556;18.728;2023-12-20T00:40:07;16.48;;;10.20;;
51248;SDS011;39642;47.556;18.728;2023-12-20T00:42:33;17.73;;;10.07;;
51248;SDS011;39642;47.556;18.728;2023-12-20T00:44:59;16.37;;;10.13;;
51248;SDS011;39642;47.556;18.728;2023-12-20T00:47:25;16.08;;;9.73;;
51248;SDS011;39642;47.556;18.728;2023-12-20T00:49:51;16.00;;;9.70;;
51248;SDS011;39642;47.556;18.728;2023-12-20T00:52:18;16.40;;;9.82;;
51248;SDS011;39642;47.556;18.728;2023-12-20T00:54:44;15.65;;;9.63;;
51248;SDS011;39642;47.556;18.728;2023-12-20T00:57:11;17.45;;;9.75;;
51248;SDS011;39642;47.556;18.728;2023-12-20T00:59:36;17.65;;;10.10;;
51248;SDS011;39642;47.556;18.728;2023-12-20T01:02:02;15.50;;;9.52;;
51248;SDS011;39642;47.556;18.728;2023-12-20T01:04:28;15.90;;;9.50;;
51248;SDS011;39642;47.556;18.728;2023-12-20T01:06:54;16.12;;;9.35;;
51248;SDS011;39642;47.556;18.728;2023-12-20T01:09:20;16.27;;;9.50;;
51248;SDS011;39642;47.556;18.728;2023-12-20T01:11:49;16.73;;;10.27;;
51248;SDS011;39642;47.556;18.728;2023-12-20T01:14:15;16.70;;;9.77;;
51248;SDS011;39642;47.556;18.728;2023-12-20T01:16:40;15.70;;;9.20;;
51248;SDS011;39642;47.556;18.728;2023-12-20T01:19:06;17.33;;;10.18;;
51248;SDS011;39642;47.556;18.728;2023-12-20T01:21:32;16.77;;;9.75;;
51248;SDS011;39642;47.556;18.728;2023-12-20T01:23:58;16.30;;;9.65;;
51248;SDS011;39642;47.556;18.728;2023-12-20T01:26:24;17.42;;;9.57;;
51248;SDS011;39642;47.556;18.728;2023-12-20T01:28:50;16.05;;;9.30;;
51248;SDS011;39642;47.556;18.728;2023-12-20T01:31:16;16.20;;;9.80;;
51248;SDS011;39642;47.556;18.728;2023-12-20T01:33:41;17.45;;;9.90;;
51248;SDS011;39642;47.556;18.728;2023-12-20T01:36:07;16.10;;;9.65;;
51248;SDS011;39642;47.556;18.728;2023-12-20T01:38:34;15.65;;;9.55;;
51248;SDS011;39642;47.556;18.728;2023-12-20T01:41:00;16.55;;;9.93;;
51248;SDS011;39642;47.556;18.728;2023-12-20T01:43:26;15.05;;;9.27;;
51248;SDS011;39642;47.556;18.728;2023-12-20T01:45:52;17.12;;;10.30;;
51248;SDS011;39642;47.556;18.728;2023-12-20T01:48:18;16.48;;;10.02;;
51248;SDS011;39642;47.556;18.728;2023-12-20T01:50:45;16.02;;;9.30;;
51248;SDS011;39642;47.556;18.728;2023-12-20T01:53:11;17.25;;;10.23;;
51248;SDS011;39642;47.556;18.728;2023-12-20T01:55:39;16.42;;;9.98;;
51248;SDS011;39642;47.556;18.728;2023-12-20T01:58:07;16.10;;;9.32;;
51248;SDS011;39642;47.556;18.728;2023-12-20T02:00:34;16.87;;;10.35;;
51248;SDS011;39642;47.556;18.728;2023-12-20T02:03:02;17.15;;;10.27;;
51248;SDS011;39642;47.556;18.728;2023-12-20T02:05:29;15.80;;;9.95;;
51248;SDS011;39642;47.556;18.728;2023-12-20T02:07:56;16.67;;;10.48;;
51248;SDS011;39642;47.556;18.728;2023-12-20T02:10:21;17.30;;;10.30;;
51248;SDS011;39642;47.556;18.728;2023-12-20T02:12:48;16.40;;;10.23;;
51248;SDS011;39642;47.556;18.728;2023-12-20T02:15:14;17.23;;;10.40;;
51248;SDS011;39642;47.556;18.728;2023-12-20T02:17:40;17.48;;;10.32;;
51248;SDS011;39642;47.556;18.728;2023-12-20T02:20:06;17.37;;;11.05;;
51248;SDS011;39642;47.556;18.728;2023-12-20T02:22:32;16.75;;;10.25;;
51248;SDS011;39642;47.556;18.728;2023-12-20T02:24:58;18.83;;;10.90;;
51248;SDS011;39642;47.556;18.728;2023-12-20T02:27:24;17.80;;;10.50;;
51248;SDS011;39642;47.556;18.728;2023-12-20T02:29:50;16.77;;;10.25;;
51248;SDS011;39642;47.556;18.728;2023-12-20T02:32:20;17.73;;;10.77;;
51248;SDS011;39642;47.556;18.728;2023-12-20T02:34:47;16.98;;;10.50;;
51248;SDS011;39642;47.556;18.728;2023-12-20T02:37:14;17.77;;;10.98;;
51248;SDS011;39642;47.556;18.728;2023-12-20T02:39:40;17.83;;;10.73;;
51248;SDS011;39642;47.556;18.728;2023-12-20T02:42:05;18.02;;;10.65;;
51248;SDS011;39642;47.556;18.728;2023-12-20T02:44:31;17.73;;;10.68;;
51248;SDS011;39642;47.556;18.728;2023-12-20T02:46:57;17.83;;;10.10;;
51248;SDS011;39642;47.556;18.728;2023-12-20T02:49:23;16.70;;;10.55;;
51248;SDS011;39642;47.556;18.728;2023-12-20T02:51:49;18.10;;;10.75;;
51248;SDS011;39642;47.556;18.728;2023-12-20T02:54:15;19.35;;;11.10;;
51248;SDS011;39642;47.556;18.728;2023-12-20T02:56:41;17.67;;;10.70;;
51248;SDS011;39642;47.556;18.728;2023-12-20T02:59:07;17.25;;;10.45;;
51248;SDS011;39642;47.556;18.728;2023-12-20T03:01:34;17.50;;;10.73;;
51248;SDS011;39642;47.556;18.728;2023-12-20T03:04:00;17.85;;;10.63;;
51248;SDS011;39642;47.556;18.728;2023-12-20T03:06:26;17.50;;;10.80;;
51248;SDS011;39642;47.556;18.728;2023-12-20T03:08:52;17.37;;;10.88;;
51248;SDS011;39642;47.556;18.728;2023-12-20T03:11:18;17.85;;;10.00;;
51248;SDS011;39642;47.556;18.728;2023-12-20T03:13:44;16.27;;;10.82;;
51248;SDS011;39642;47.556;18.728;2023-12-20T03:16:10;16.20;;;10.38;;
51248;SDS011;39642;47.556;18.728;2023-12-20T03:18:37;17.75;;;10.75;;
51248;SDS011;39642;47.556;18.728;2023-12-20T03:21:04;17.27;;;10.60;;
51248;SDS011;39642;47.556;18.728;2023-12-20T03:23:30;17.98;;;10.98;;
51248;SDS011;39642;47.556;18.728;2023-12-20T03:25:58;18.08;;;10.40;;
51248;SDS011;39642;47.556;18.728;2023-12-20T03:28:27;17.37;;;10.40;;
51248;SDS011;39642;47.556;18.728;2023-12-20T03:30:53;17.30;;;10.48;;
51248;SDS011;39642;47.556;18.728;2023-12-20T03:33:19;17.00;;;10.40;;
51248;SDS011;39642;47.556;18.728;2023-12-20T03:35:45;18.87;;;11.15;;
51248;SDS011;39642;47.556;18.728;2023-12-20T03:38:11;17.45;;;10.27;;
51248;SDS011;39642;47.556;18.728;2023-12-20T03:40:36;17.30;;;10.77;;
51248;SDS011;39642;47.556;18.728;2023-12-20T03:43:02;17.27;;;10.20;;
51248;SDS011;39642;47.556;18.728;2023-12-20T03:45:28;17.58;;;10.18;;
51248;SDS011;39642;47.556;18.728;2023-12-20T03:47:54;16.62;;;9.80;;
51248;SDS011;39642;47.556;18.728;2023-12-20T03:50:22;16.55;;;10.10;;
51248;SDS011;39642;47.556;18.728;2023-12-20T03:52:48;17.23;;;10.50;;
51248;SDS011;39642;47.556;18.728;2023-12-20T03:55:14;17.23;;;10.40;;
51248;SDS011;39642;47.556;18.728;2023-12-20T03:57:41;17.25;;;10.57;;
51248;SDS011;39642;47.556;18.728;2023-12-20T04:00:07;16.60;;;10.20;;
51248;SDS011;39642;47.556;18.728;2023-12-20T04:02:39;16.62;;;10.18;;
51248;SDS011;39642;47.556;18.728;2023-12-20T04:05:07;17.48;;;10.60;;
51248;SDS011;39642;47.556;18.728;2023-12-20T04:07:33;17.67;;;10.38;;
51248;SDS011;39642;47.556;18.728;2023-12-20T04:09:59;16.62;;;10.80;;
51248;SDS011;39642;47.556;18.728;2023-12-20T04:12:26;17.23;;;10.48;;
51248;SDS011;39642;47.556;18.728;2023-12-20T04:14:52;16.67;;;10.40;;
51248;SDS011;39642;47.556;18.728;2023-12-20T04:17:18;15.98;;;10.02;;
51248;SDS011;39642;47.556;18.728;2023-12-20T04:19:45;17.02;;;10.23;;
51248;SDS011;39642;47.556;18.728;2023-12-20T04:22:11;17.65;;;10.68;;
51248;SDS011;39642;47.556;18.728;2023-12-20T04:24:37;17.00;;;10.50;;
51248;SDS011;39642;47.556;18.728;2023-12-20T04:27:03;17.48;;;10.77;;
51248;SDS011;39642;47.556;18.728;2023-12-20T04:29:29;17.45;;;10.82;;
51248;SDS011;39642;47.556;18.728;2023-12-20T04:31:55;16.35;;;10.13;;
51248;SDS011;39642;47.556;18.728;2023-12-20T04:34:22;15.75;;;9.80;;
51248;SDS011;39642;47.556;18.728;2023-12-20T04:36:48;17.58;;;10.90;;
51248;SDS011;39642;47.556;18.728;2023-12-20T04:39:14;17.40;;;10.57;;
51248;SDS011;39642;47.556;18.728;2023-12-20T04:41:40;16.10;;;9.65;;
51248;SDS011;39642;47.556;18.728;2023-12-20T04:44:06;17.12;;;10.15;;
51248;SDS011;39642;47.556;18.728;2023-12-20T04:46:32;16.85;;;9.73;;
51248;SDS011;39642;47.556;18.728;2023-12-20T04:48:58;17.65;;;10.68;;
51248;SDS011;39642;47.556;18.728;2023-12-20T04:51:24;16.55;;;10.13;;
51248;SDS011;39642;47.556;18.728;2023-12-20T04:53:50;17.25;;;10.18;;
51248;SDS011;39642;47.556;18.728;2023-12-20T04:56:16;17.73;;;10.60;;
51248;SDS011;39642;47.556;18.728;2023-12-20T04:58:42;15.85;;;9.57;;
51248;SDS011;39642;47.556;18.728;2023-12-20T05:01:08;16.58;;;9.93;;
51248;SDS011;39642;47.556;18.728;2023-12-20T05:03:35;16.90;;;10.27;;
51248;SDS011;39642;47.556;18.728;2023-12-20T05:06:01;16.73;;;10.50;;
51248;SDS011;39642;47.556;18.728;2023-12-20T05:08:27;16.80;;;10.48;;
51248;SDS011;39642;47.556;18.728;2023-12-20T05:10:54;16.02;;;9.82;;
51248;SDS011;39642;47.556;18.728;2023-12-20T05:13:20;18.23;;;10.60;;
51248;SDS011;39642;47.556;18.728;2023-12-20T05:15:46;17.80;;;9.85;;
51248;SDS011;39642;47.556;18.728;2023-12-20T05:18:12;18.48;;;10.20;;
51248;SDS011;39642;47.556;18.728;2023-12-20T05:20:38;19.48;;;11.07;;
51248;SDS011;39642;47.556;18.728;2023-12-20T05:23:05;18.55;;;10.88;;
51248;SDS011;39642;47.556;18.728;2023-12-20T05:25:31;22.80;;;11.35;;
51248;SDS011;39642;47.556;18.728;2023-12-20T05:27:57;19.77;;;10.52;;
51248;SDS011;39642;47.556;18.728;2023-12-20T05:30:23;20.10;;;10.60;;
51248;SDS011;39642;47.556;18.728;2023-12-20T05:32:49;20.30;;;10.50;;
51248;SDS011;39642;47.556;18.728;2023-12-20T05:35:15;24.35;;;10.98;;
51248;SDS011;39642;47.556;18.728;2023-12-20T05:37:41;20.30;;;11.18;;
51248;SDS011;39642;47.556;18.728;2023-12-20T05:40:07;23.40;;;10.95;;
51248;SDS011;39642;47.556;18.728;2023-12-20T05:42:36;18.48;;;10.40;;
51248;SDS011;39642;47.556;18.728;2023-12-20T05:45:03;20.48;;;10.95;;
51248;SDS011;39642;47.556;18.728;2023-12-20T05:47:30;15.80;;;10.05;;
51248;SDS011;39642;47.556;18.728;2023-12-20T05:49:56;17.40;;;8.30;;
51248;SDS011;39642;47.556;18.728;2023-12-20T05:52:22;14.73;;;8.10;;
51248;SDS011;39642;47.556;18.728;2023-12-20T05:54:48;19.17;;;8.88;;
51248;SDS011;39642;47.556;18.728;2023-12-20T05:57:14;15.75;;;8.52;;
51248;SDS011;39642;47.556;18.728;2023-12-20T05:59:40;15.40;;;8.48;;
51248;SDS011;39642;47.556;18.728;2023-12-20T06:02:06;14.48;;;8.20;;
51248;SDS011;39642;47.556;18.728;2023-12-20T06:04:32;15.10;;;8.90;;
51248;SDS011;39642;47.556;18.728;2023-12-20T06:06:58;16.45;;;9.13;;
51248;SDS011;39642;47.556;18.728;2023-12-20T06:09:26;14.93;;;8.35;;
51248;SDS011;39642;47.556;18.728;2023-12-20T06:11:53;19.80;;;9.30;;
51248;SDS011;39642;47.556;18.728;2023-12-20T06:14:18;18.65;;;8.55;;
51248;SDS011;39642;47.556;18.728;2023-12-20T06:16:45;18.58;;;9.57;;
51248;SDS011;39642;47.556;18.728;2023-12-20T06:19:11;16.35;;;9.48;;
51248;SDS011;39642;47.556;18.728;2023-12-20T06:21:37;18.62;;;9.68;;
51248;SDS011;39642;47.556;18.728;2023-12-20T06:24:03;17.83;;;9.68;;
51248;SDS011;39642;47.556;18.728;2023-12-20T06:26:29;17.42;;;9.80;;
51248;SDS011;39642;47.556;18.728;2023-12-20T06:28:55;21.48;;;10.05;;
51248;SDS011;39642;47.556;18.728;2023-12-20T06:31:21;33.35;;;11.75;;
51248;SDS011;39642;47.556;18.728;2023-12-20T06:33:47;24.15;;;9.90;;
51248;SDS011;39642;47.556;18.728;2023-12-20T06:36:15;16.62;;;9.70;;
51248;SDS011;39642;47.556;18.728;2023-12-20T06:38:41;20.33;;;9.75;;
51248;SDS011;39642;47.556;18.728;2023-12-20T06:41:07;28.48;;;10.55;;
51248;SDS011;39642;47.556;18.728;2023-12-20T06:43:33;20.17;;;9.85;;
51248;SDS011;39642;47.556;18.728;2023-12-20T06:46:02;17.00;;;9.57;;
51248;SDS011;39642;47.556;18.728;2023-12-20T06:48:28;20.98;;;9.88;;
51248;SDS011;39642;47.556;18.728;2023-12-20T06:50:54;23.05;;;11.10;;
51248;SDS011;39642;47.556;18.728;2023-12-20T06:53:20;23.60;;;10.25;;
51248;SDS011;39642;47.556;18.728;2023-12-20T06:55:46;20.60;;;10.02;;
51248;SDS011;39642;47.556;18.728;2023-12-20T06:58:12;21.95;;;11.00;;
51248;SDS011;39642;47.556;18.728;2023-12-20T07:00:38;26.77;;;11.12;;
51248;SDS011;39642;47.556;18.728;2023-12-20T07:03:03;20.50;;;10.93;;
51248;SDS011;39642;47.556;18.728;2023-12-20T07:05:29;20.55;;;11.98;;
51248;SDS011;39642;47.556;18.728;2023-12-20T07:08:01;20.40;;;11.20;;
51248;SDS011;39642;47.556;18.728;2023-12-20T07:10:27;32.33;;;12.60;;
51248;SDS011;39642;47.556;18.728;2023-12-20T07:12:53;31.40;;;11.73;;
51248;SDS011;39642;47.556;18.728;2023-12-20T07:15:21;28.50;;;10.75;;
51248;SDS011;39642;47.556;18.728;2023-12-20T07:17:47;28.70;;;11.07;;
51248;SDS011;39642;47.556;18.728;2023-12-20T07:20:13;30.48;;;12.05;;
51248;SDS011;39642;47.556;18.728;2023-12-20T07:22:39;35.10;;;11.90;;
51248;SDS011;39642;47.556;18.728;2023-12-20T07:25:05;28.27;;;11.80;;
51248;SDS011;39642;47.556;18.728;2023-12-20T07:27:32;25.88;;;10.80;;
51248;SDS011;39642;47.556;18.728;2023-12-20T07:29:58;25.80;;;10.07;;
51248;SDS011;39642;47.556;18.728;2023-12-20T07:32:24;24.63;;;10.25;;
51248;SDS011;39642;47.556;18.728;2023-12-20T07:34:50;28.25;;;10.70;;
51248;SDS011;39642;47.556;18.728;2023-12-20T07:37:53;24.27;;;10.55;;
51248;SDS011;39642;47.556;18.728;2023-12-20T07:41:15;36.90;;;13.23;;
51248;SDS011;39642;47.556;18.728;2023-12-20T07:43:41;35.72;;;13.20;;
51248;SDS011;39642;47.556;18.728;2023-12-20T07:46:08;29.55;;;12.57;;
51248;SDS011;39642;47.556;18.728;2023-12-20T07:48:34;36.92;;;12.73;;
51248;SDS011;39642;47.556;18.728;2023-12-20T07:51:01;29.45;;;12.32;;
51248;SDS011;39642;47.556;18.728;2023-12-20T07:53:27;39.40;;;13.40;;
51248;SDS011;39642;47.556;18.728;2023-12-20T07:55:55;39.33;;;13.13;;
51248;SDS011;39642;47.556;18.728;2023-12-20T07:58:21;35.83;;;11.77;;
51248;SDS011;39642;47.556;18.728;2023-12-20T08:00:47;25.12;;;11.40;;
51248;SDS011;39642;47.556;18.728;2023-12-20T08:03:13;29.12;;;12.02;;
51248;SDS011;39642;47.556;18.728;2023-12-20T08:05:39;40.63;;;12.77;;
51248;SDS011;39642;47.556;18.728;2023-12-20T08:08:06;38.10;;;13.32;;
51248;SDS011;39642;47.556;18.728;2023-12-20T08:10:32;35.90;;;14.02;;
51248;SDS011;39642;47.556;18.728;2023-12-20T08:12:58;25.67;;;11.75;;
51248;SDS011;39642;47.556;18.728;2023-12-20T08:15:24;35.10;;;13.25;;
51248;SDS011;39642;47.556;18.728;2023-12-20T08:17:50;36.17;;;13.75;;
51248;SDS011;39642;47.556;18.728;2023-12-20T08:20:19;23.30;;;11.43;;
51248;SDS011;39642;47.556;18.728;2023-12-20T08:22:45;27.40;;;13.82;;
51248;SDS011;39642;47.556;18.728;2023-12-20T08:25:10;29.45;;;12.45;;
51248;SDS011;39642;47.556;18.728;2023-12-20T08:27:40;29.25;;;12.18;;
51248;SDS011;39642;47.556;18.728;2023-12-20T08:30:08;34.88;;;15.43;;
51248;SDS011;39642;47.556;18.728;2023-12-20T08:32:34;25.77;;;13.55;;
51248;SDS011;39642;47.556;18.728;2023-12-20T08:35:00;53.10;;;15.43;;
51248;SDS011;39642;47.556;18.728;2023-12-20T08:37:26;31.55;;;13.85;;
51248;SDS011;39642;47.556;18.728;2023-12-20T08:39:52;31.80;;;14.57;;
51248;SDS011;39642;47.556;18.728;2023-12-20T08:42:18;32.30;;;17.98;;
51248;SDS011;39642;47.556;18.728;2023-12-20T08:44:45;34.53;;;15.55;;
51248;SDS011;39642;47.556;18.728;2023-12-20T08:47:11;32.15;;;16.50;;
51248;SDS011;39642;47.556;18.728;2023-12-20T08:49:39;31.30;;;15.75;;
51248;SDS011;39642;47.556;18.728;2023-12-20T08:52:05;34.58;;;15.07;;
51248;SDS011;39642;47.556;18.728;2023-12-20T08:54:31;39.42;;;17.60;;
51248;SDS011;39642;47.556;18.728;2023-12-20T08:56:57;39.40;;;19.40;;
51248;SDS011;39642;47.556;18.728;2023-12-20T08:59:23;46.45;;;21.30;;
51248;SDS011;39642;47.556;18.728;2023-12-20T09:01:49;49.63;;;22.10;;
51248;SDS011;39642;47.556;18.728;2023-12-20T09:04:19;38.25;;;19.10;;
51248;SDS011;39642;47.556;18.728;2023-12-20T09:06:46;49.60;;;21.65;;
51248;SDS011;39642;47.556;18.728;2023-12-20T09:09:12;54.83;;;21.60;;
51248;SDS011;39642;47.556;18.728;2023-12-20T09:11:40;42.60;;;19.92;;
51248;SDS011;39642;47.556;18.728;2023-12-20T09:14:06;43.10;;;19.40;;
51248;SDS011;39642;47.556;18.728;2023-12-20T09:16:32;39.22;;;18.55;;
51248;SDS011;39642;47.556;18.728;2023-12-20T09:18:58;42.55;;;18.73;;
51248;SDS011;39642;47.556;18.728;2023-12-20T09:21:24;50.88;;;19.17;;
51248;SDS011;39642;47.556;18.728;2023-12-20T09:23:50;41.25;;;18.58;;
51248;SDS011;39642;47.556;18.728;2023-12-20T09:26:19;41.70;;;17.62;;
51248;SDS011;39642;47.556;18.728;2023-12-20T09:28:46;40.30;;;17.85;;
51248;SDS011;39642;47.556;18.728;2023-12-20T09:31:13;42.88;;;17.55;;
51248;SDS011;39642;47.556;18.728;2023-12-20T09:33:39;36.67;;;17.45;;
51248;SDS011;39642;47.556;18.728;2023-12-20T09:36:05;36.60;;;17.67;;
51248;SDS011;39642;47.556;18.728;2023-12-20T09:38:31;42.45;;;18.27;;
51248;SDS011;39642;47.556;18.728;2023-12-20T09:40:57;38.05;;;17.42;;
51248;SDS011;39642;47.556;18.728;2023-12-20T09:43:23;41.45;;;18.60;;
51248;SDS011;39642;47.556;18.728;2023-12-20T09:45:52;42.62;;;18.17;;
51248;SDS011;39642;47.556;18.728;2023-12-20T09:48:19;42.05;;;18.67;;
51248;SDS011;39642;47.556;18.728;2023-12-20T09:50:45;51.25;;;17.95;;
51248;SDS011;39642;47.556;18.728;2023-12-20T09:53:14;39.45;;;18.27;;
51248;SDS011;39642;47.556;18.728;2023-12-20T09:55:42;34.80;;;17.00;;
51248;SDS011;39642;47.556;18.728;2023-12-20T09:58:08;35.97;;;17.08;;
51248;SDS011;39642;47.556;18.728;2023-12-20T10:00:34;50.50;;;19.23;;
51248;SDS011;39642;47.556;18.728;2023-12-20T10:03:01;47.80;;;17.65;;
51248;SDS011;39642;47.556;18.728;2023-12-20T10:05:31;43.55;;;17.60;;
51248;SDS011;39642;47.556;18.728;2023-12-20T10:07:58;51.97;;;16.60;;
51248;SDS011;39642;47.556;18.728;2023-12-20T10:10:24;33.83;;;15.10;;
51248;SDS011;39642;47.556;18.728;2023-12-20T10:13:03;42.92;;;15.75;;
51248;SDS011;39642;47.556;18.728;2023-12-20T10:15:32;41.65;;;16.00;;
51248;SDS011;39642;47.556;18.728;2023-12-20T10:17:59;36.30;;;15.55;;
51248;SDS011;39642;47.556;18.728;2023-12-20T10:20:25;39.30;;;16.15;;
51248;SDS011;39642;47.556;18.728;2023-12-20T10:22:51;30.88;;;15.13;;
51248;SDS011;39642;47.556;18.728;2023-12-20T10:25:19;30.50;;;14.63;;
51248;SDS011;39642;47.556;18.728;2023-12-20T10:27:49;31.02;;;14.73;;
51248;SDS011;39642;47.556;18.728;2023-12-20T10:30:16;28.92;;;13.60;;
51248;SDS011;39642;47.556;18.728;2023-12-20T10:32:42;35.75;;;15.35;;
51248;SDS011;39642;47.556;18.728;2023-12-20T10:35:08;30.20;;;15.00;;
51248;SDS011;39642;47.556;18.728;2023-12-20T10:37:35;32.83;;;13.30;;
51248;SDS011;39642;47.556;18.728;2023-12-20T10:40:03;36.53;;;13.80;;
51248;SDS011;39642;47.556;18.728;2023-12-20T10:42:31;38.53;;;14.48;;
51248;SDS011;39642;47.556;18.728;2023-12-20T10:44:59;33.20;;;13.93;;
51248;SDS011;39642;47.556;18.728;2023-12-20T10:47:25;30.95;;;13.18;;
51248;SDS011;39642;47.556;18.728;2023-12-20T10:49:54;46.13;;;13.60;;
51248;SDS011;39642;47.556;18.728;2023-12-20T10:52:20;29.95;;;12.32;;
51248;SDS011;39642;47.556;18.728;2023-12-20T10:54:50;34.03;;;12.77;;
51248;SDS011;39642;47.556;18.728;2023-12-20T10:57:16;37.47;;;13.40;;
51248;SDS011;39642;47.556;18.728;2023-12-20T10:59:45;28.35;;;12.00;;
51248;SDS011;39642;47.556;18.728;2023-12-20T11:02:14;23.15;;;10.55;;
51248;SDS011;39642;47.556;18.728;2023-12-20T11:04:46;35.15;;;12.60;;
51248;SDS011;39642;47.556;18.728;2023-12-20T11:07:20;33.83;;;11.63;;
51248;SDS011;39642;47.556;18.728;2023-12-20T11:10:00;32.10;;;11.40;;
51248;SDS011;39642;47.556;18.728;2023-12-20T11:15:37;31.12;;;10.93;;
51248;SDS011;39642;47.556;18.728;2023-12-20T11:18:04;35.28;;;12.43;;
51248;SDS011;39642;47.556;18.728;2023-12-20T11:20:38;32.00;;;10.68;;
51248;SDS011;39642;47.556;18.728;2023-12-20T11:23:05;28.55;;;10.63;;
51248;SDS011;39642;47.556;18.728;2023-12-20T11:25:46;28.30;;;10.57;;
51248;SDS011;39642;47.556;18.728;2023-12-20T11:28:12;30.10;;;10.40;;
51248;SDS011;39642;47.556;18.728;2023-12-20T11:30:42;25.60;;;10.20;;
51248;SDS011;39642;47.556;18.728;2023-12-20T11:33:11;29.87;;;10.98;;
51248;SDS011;39642;47.556;18.728;2023-12-20T11:35:38;34.17;;;11.02;;
51248;SDS011;39642;47.556;18.728;2023-12-20T11:38:07;27.62;;;10.23;;
51248;SDS011;39642;47.556;18.728;2023-12-20T11:40:36;32.63;;;10.10;;
51248;SDS011;39642;47.556;18.728;2023-12-20T11:43:04;31.83;;;10.32;;
51248;SDS011;39642;47.556;18.728;2023-12-20T11:45:31;31.30;;;10.00;;
51248;SDS011;39642;47.556;18.728;2023-12-20T11:47:57;32.40;;;10.15;;
51248;SDS011;39642;47.556;18.728;2023-12-20T11:50:23;34.90;;;9.95;;
51248;SDS011;39642;47.556;18.728;2023-12-20T11:52:50;31.05;;;10.75;;
51248;SDS011;39642;47.556;18.728;2023-12-20T11:55:17;28.05;;;9.65;;
51248;SDS011;39642;47.556;18.728;2023-12-20T11:57:44;28.85;;;9.63;;
51248;SDS011;39642;47.556;18.728;2023-12-20T12:00:11;28.52;;;9.90;;
51248;SDS011;39642;47.556;18.728;2023-12-20T12:02:37;30.25;;;10.10;;
51248;SDS011;39642;47.556;18.728;2023-12-20T12:05:03;31.73;;;9.52;;
51248;SDS011;39642;47.556;18.728;2023-12-20T12:07:33;26.33;;;9.73;;
51248;SDS011;39642;47.556;18.728;2023-12-20T12:09:59;34.53;;;9.77;;
51248;SDS011;39642;47.556;18.728;2023-12-20T12:12:26;28.85;;;9.65;;
51248;SDS011;39642;47.556;18.728;2023-12-20T12:14:53;28.38;;;9.55;;
51248;SDS011;39642;47.556;18.728;2023-12-20T12:17:20;30.40;;;10.18;;
51248;SDS011;39642;47.556;18.728;2023-12-20T12:19:46;28.65;;;10.05;;
51248;SDS011;39642;47.556;18.728;2023-12-20T12:22:13;32.92;;;9.73;;
51248;SDS011;39642;47.556;18.728;2023-12-20T12:24:41;32.83;;;10.40;;
51248;SDS011;39642;47.556;18.728;2023-12-20T12:27:11;27.30;;;9.35;;
51248;SDS011;39642;47.556;18.728;2023-12-20T12:29:38;36.63;;;9.75;;
51248;SDS011;39642;47.556;18.728;2023-12-20T12:32:07;32.63;;;9.82;;
51248;SDS011;39642;47.556;18.728;2023-12-20T12:34:35;34.33;;;8.90;;
51248;SDS011;39642;47.556;18.728;2023-12-20T12:37:03;28.85;;;9.25;;
51248;SDS011;39642;47.556;18.728;2023-12-20T12:39:29;28.83;;;9.25;;
51248;SDS011;39642;47.556;18.728;2023-12-20T12:41:56;28.42;;;9.07;;
51248;SDS011;39642;47.556;18.728;2023-12-20T12:44:22;24.80;;;8.82;;
51248;SDS011;39642;47.556;18.728;2023-12-20T12:46:51;24.42;;;8.52;;
51248;SDS011;39642;47.556;18.728;2023-12-20T12:49:19;27.23;;;8.48;;
51248;SDS011;39642;47.556;18.728;2023-12-20T12:51:47;24.65;;;8.38;;
51248;SDS011;39642;47.556;18.728;2023-12-20T12:54:13;24.95;;;8.38;;
51248;SDS011;39642;47.556;18.728;2023-12-20T12:56:41;27.55;;;8.65;;
51248;SDS011;39642;47.556;18.728;2023-12-20T12:59:08;20.85;;;8.00;;
51248;SDS011;39642;47.556;18.728;2023-12-20T13:01:34;23.10;;;7.40;;
51248;SDS011;39642;47.556;18.728;2023-12-20T13:04:00;21.20;;;8.20;;
51248;SDS011;39642;47.556;18.728;2023-12-20T13:06:29;20.37;;;7.93;;
51248;SDS011;39642;47.556;18.728;2023-12-20T13:08:55;23.92;;;7.93;;
51248;SDS011;39642;47.556;18.728;2023-12-20T13:11:21;21.52;;;8.70;;
51248;SDS011;39642;47.556;18.728;2023-12-20T13:13:46;23.77;;;8.07;;
51248;SDS011;39642;47.556;18.728;2023-12-20T13:16:12;23.40;;;8.07;;
51248;SDS011;39642;47.556;18.728;2023-12-20T13:18:38;20.45;;;7.45;;
51248;SDS011;39642;47.556;18.728;2023-12-20T13:21:08;25.95;;;7.47;;
51248;SDS011;39642;47.556;18.728;2023-12-20T13:23:34;22.40;;;7.55;;
51248;SDS011;39642;47.556;18.728;2023-12-20T13:26:01;21.55;;;7.55;;
51248;SDS011;39642;47.556;18.728;2023-12-20T13:28:27;23.75;;;7.53;;
51248;SDS011;39642;47.556;18.728;2023-12-20T13:30:53;19.08;;;7.75;;
51248;SDS011;39642;47.556;18.728;2023-12-20T13:33:19;24.40;;;7.68;;
51248;SDS011;39642;47.556;18.728;2023-12-20T13:35:45;24.10;;;7.22;;
51248;SDS011;39642;47.556;18.728;2023-12-20T13:38:12;21.73;;;7.60;;
51248;SDS011;39642;47.556;18.728;2023-12-20T13:40:39;24.75;;;7.28;;
51248;SDS011;39642;47.556;18.728;2023-12-20T13:43:05;62.13;;;10.63;;
51248;SDS011;39642;47.556;18.728;2023-12-20T13:45:31;60.70;;;10.48;;
51248;SDS011;39642;47.556;18.728;2023-12-20T13:47:58;35.38;;;7.65;;
51248;SDS011;39642;47.556;18.728;2023-12-20T13:50:24;46.95;;;9.90;;
51248;SDS011;39642;47.556;18.728;2023-12-20T13:52:51;41.40;;;9.02;;
51248;SDS011;39642;47.556;18.728;2023-12-20T13:55:17;36.10;;;8.15;;
51248;SDS011;39642;47.556;18.728;2023-12-20T13:57:43;35.40;;;7.43;;
51248;SDS011;39642;47.556;18.728;2023-12-20T14:00:09;67.82;;;11.40;;
51248;SDS011;39642;47.556;18.728;2023-12-20T14:02:43;40.25;;;8.77;;
51248;SDS011;39642;47.556;18.728;2023-12-20T14:05:09;48.38;;;8.60;;
51248;SDS011;39642;47.556;18.728;2023-12-20T14:07:36;48.15;;;9.23;;
51248;SDS011;39642;47.556;18.728;2023-12-20T14:10:02;54.47;;;9.70;;
51248;SDS011;39642;47.556;18.728;2023-12-20T14:12:29;50.17;;;9.77;;
51248;SDS011;39642;47.556;18.728;2023-12-20T14:14:55;51.72;;;9.00;;